sensor_id;sensor_type;location;lat;lon;timestamp;pressure;altitude;pressure_sealevel;temperature;humidity
26563;BME280;14217;50.986;5.826;2023-01-26T00:04:14;101909.91;;;16.04;42.90
26563;BME280;14217;50.986;5.826;2023-01-26T00:09:16;101915.19;;;16.04;42.96
26563;BME280;14217;50.986;5.826;2023-01-26T00:14:18;101898.19;;;16.18;42.40
26563;BME280;14217;50.986;5.826;2023-01-26T00:19:20;101902.72;;;16.11;42.52
26563;BME280;14217;50.986;5.826;2023-01-26T00:24:22;101888.59;;;16.12;42.41
26563;BME280;14217;50.986;5.826;2023-01-26T00:29:24;101899.25;;;16.09;42.37
26563;BME280;14217;50.986;5.826;2023-01-26T00:34:26;101891.19;;;16.15;42.50
26563;BME280;14217;50.986;5.826;2023-01-26T00:39:28;101881.41;;;16.19;42.12
26563;BME280;14217;50.986;5.826;2023-01-26T00:44:30;101867.34;;;16.18;41.97
26563;BME280;14217;50.986;5.826;2023-01-26T00:49:32;101863.31;;;15.96;42.81
26563;BME280;14217;50.986;5.826;2023-01-26T00:54:34;101856.09;;;16.05;42.42
26563;BME280;14217;50.986;5.826;2023-01-26T00:59:36;101847.13;;;16.16;42.37
26563;BME280;14217;50.986;5.826;2023-01-26T01:04:38;101838.34;;;16.14;42.34
26563;BME280;14217;50.986;5.826;2023-01-26T01:09:40;101832.88;;;16.23;41.90
26563;BME280;14217;50.986;5.826;2023-01-26T01:14:42;101823.09;;;16.26;42.00
26563;BME280;14217;50.986;5.826;2023-01-26T01:19:44;101825.88;;;16.19;42.16
26563;BME280;14217;50.986;5.826;2023-01-26T01:24:46;101817.78;;;16.28;41.59
26563;BME280;14217;50.986;5.826;2023-01-26T01:29:51;101823.00;;;16.31;41.72
26563;BME280;14217;50.986;5.826;2023-01-26T01:34:53;101812.31;;;15.92;42.99
26563;BME280;14217;50.986;5.826;2023-01-26T01:39:55;101814.72;;;16.04;42.49
26563;BME280;14217;50.986;5.826;2023-01-26T01:50:29;101803.25;;;16.04;41.12
26563;BME280;14217;50.986;5.826;2023-01-26T01:55:33;101801.31;;;16.14;40.85
26563;BME280;14217;50.986;5.826;2023-01-26T02:00:35;101803.00;;;16.18;40.31
26563;BME280;14217;50.986;5.826;2023-01-26T02:06:02;101794.03;;;16.25;40.05
26563;BME280;14217;50.986;5.826;2023-01-26T02:11:12;101794.03;;;16.25;39.84
26563;BME280;14217;50.986;5.826;2023-01-26T02:16:16;101792.31;;;16.24;39.50
26563;BME280;14217;50.986;5.826;2023-01-26T02:21:20;101792.13;;;16.32;39.09
26563;BME280;14217;50.986;5.826;2023-01-26T02:26:27;101786.19;;;16.20;39.55
26563;BME280;14217;50.986;5.826;2023-01-26T02:31:30;101787.03;;;16.22;39.42
26563;BME280;14217;50.986;5.826;2023-01-26T02:36:33;101776.50;;;16.21;39.56
26563;BME280;14217;50.986;5.826;2023-01-26T02:41:35;101774.69;;;16.23;39.10
26563;BME280;14217;50.986;5.826;2023-01-26T02:46:55;101771.28;;;16.16;39.35
26563;BME280;14217;50.986;5.826;2023-01-26T02:51:57;101766.75;;;16.23;39.10
26563;BME280;14217;50.986;5.826;2023-01-26T02:56:59;101761.41;;;16.26;38.71
26563;BME280;14217;50.986;5.826;2023-01-26T03:02:01;101751.81;;;16.20;39.20
26563;BME280;14217;50.986;5.826;2023-01-26T03:07:04;101754.44;;;16.23;38.79
26563;BME280;14217;50.986;5.826;2023-01-26T03:12:06;101752.03;;;16.11;39.18
26563;BME280;14217;50.986;5.826;2023-01-26T03:17:08;101761.69;;;16.12;39.40
26563;BME280;14217;50.986;5.826;2023-01-26T03:22:10;101749.44;;;16.08;39.31
26563;BME280;14217;50.986;5.826;2023-01-26T03:27:39;101750.25;;;16.12;39.17
26563;BME280;14217;50.986;5.826;2023-01-26T03:32:41;101744.72;;;16.24;38.78
26563;BME280;14217;50.986;5.826;2023-01-26T03:37:43;101751.00;;;16.17;39.09
26563;BME280;14217;50.986;5.826;2023-01-26T03:42:45;101742.22;;;16.16;39.02
26563;BME280;14217;50.986;5.826;2023-01-26T03:48:07;101747.47;;;16.19;39.02
26563;BME280;14217;50.986;5.826;2023-01-26T03:53:28;101759.75;;;16.20;39.20
26563;BME280;14217;50.986;5.826;2023-01-26T03:58:52;101751.09;;;16.12;38.87
26563;BME280;14217;50.986;5.826;2023-01-26T04:03:55;101742.38;;;16.09;39.06
26563;BME280;14217;50.986;5.826;2023-01-26T04:09:16;101735.19;;;16.15;38.86
26563;BME280;14217;50.986;5.826;2023-01-26T04:14:18;101735.19;;;16.15;39.22
26563;BME280;14217;50.986;5.826;2023-01-26T04:19:50;101735.13;;;16.18;39.42
26563;BME280;14217;50.986;5.826;2023-01-26T04:25:15;101740.50;;;16.14;39.74
26563;BME280;14217;50.986;5.826;2023-01-26T04:30:18;101745.72;;;16.17;40.10
26563;BME280;14217;50.986;5.826;2023-01-26T04:35:20;101736.09;;;16.14;40.16
26563;BME280;14217;50.986;5.826;2023-01-26T04:40:22;101735.13;;;16.17;39.98
26563;BME280;14217;50.986;5.826;2023-01-26T04:45:24;101733.47;;;16.13;40.36
26563;BME280;14217;50.986;5.826;2023-01-26T04:50:26;101723.72;;;16.15;40.22
26563;BME280;14217;50.986;5.826;2023-01-26T04:55:28;101717.56;;;16.16;40.54
26563;BME280;14217;50.986;5.826;2023-01-26T05:00:30;101725.47;;;16.16;40.48
26563;BME280;14217;50.986;5.826;2023-01-26T05:05:36;101728.00;;;16.22;40.27
26563;BME280;14217;50.986;5.826;2023-01-26T05:10:38;101712.25;;;16.17;40.50
26563;BME280;14217;50.986;5.826;2023-01-26T05:15:40;101724.75;;;16.08;40.69
26563;BME280;14217;50.986;5.826;2023-01-26T05:20:42;101727.28;;;16.14;40.79
26563;BME280;14217;50.986;5.826;2023-01-26T05:25:44;101733.44;;;16.14;40.66
26563;BME280;14217;50.986;5.826;2023-01-26T05:30:46;101733.47;;;16.13;40.83
26563;BME280;14217;50.986;5.826;2023-01-26T05:35:49;101732.50;;;16.17;40.86
26563;BME280;14217;50.986;5.826;2023-01-26T05:40:51;101724.53;;;16.20;40.75
26563;BME280;14217;50.986;5.826;2023-01-26T05:45:53;101731.66;;;16.15;40.74
26563;BME280;14217;50.986;5.826;2023-01-26T05:50:56;101732.56;;;16.14;40.71
26563;BME280;14217;50.986;5.826;2023-01-26T05:55:58;101729.91;;;16.15;40.76
26563;BME280;14217;50.986;5.826;2023-01-26T06:01:03;101731.63;;;16.18;40.80
26563;BME280;14217;50.986;5.826;2023-01-26T06:06:05;101729.94;;;16.12;40.83
26563;BME280;14217;50.986;5.826;2023-01-26T06:11:07;101736.09;;;16.13;40.89
26563;BME280;14217;50.986;5.826;2023-01-26T06:16:09;101743.22;;;16.11;40.83
26563;BME280;14217;50.986;5.826;2023-01-26T06:21:11;101741.44;;;16.11;41.17
26563;BME280;14217;50.986;5.826;2023-01-26T06:26:13;101750.25;;;16.10;41.09
26563;BME280;14217;50.986;5.826;2023-01-26T06:31:16;101758.06;;;16.16;40.76
26563;BME280;14217;50.986;5.826;2023-01-26T06:36:18;101748.41;;;16.15;40.98
26563;BME280;14217;50.986;5.826;2023-01-26T06:41:20;101757.22;;;16.16;40.78
26563;BME280;14217;50.986;5.826;2023-01-26T06:46:22;101756.28;;;16.18;40.88
26563;BME280;14217;50.986;5.826;2023-01-26T06:56:32;101751.06;;;16.15;41.15
26563;BME280;14217;50.986;5.826;2023-01-26T07:01:37;101753.59;;;16.20;41.01
26563;BME280;14217;50.986;5.826;2023-01-26T07:06:40;101752.88;;;16.12;41.21
26563;BME280;14217;50.986;5.826;2023-01-26T07:11:42;101751.91;;;16.17;40.74
26563;BME280;14217;50.986;5.826;2023-01-26T07:16:44;101765.16;;;16.14;41.24
26563;BME280;14217;50.986;5.826;2023-01-26T07:21:46;101757.25;;;16.13;41.18
26563;BME280;14217;50.986;5.826;2023-01-26T07:26:49;101753.72;;;16.14;41.13
26563;BME280;14217;50.986;5.826;2023-01-26T07:31:51;101756.47;;;16.09;41.09
26563;BME280;14217;50.986;5.826;2023-01-26T07:36:53;101762.44;;;16.19;41.15
26563;BME280;14217;50.986;5.826;2023-01-26T07:41:55;101767.84;;;16.13;41.18
26563;BME280;14217;50.986;5.826;2023-01-26T07:46:57;101763.38;;;16.15;41.06
26563;BME280;14217;50.986;5.826;2023-01-26T07:51:59;101760.75;;;16.15;41.22
26563;BME280;14217;50.986;5.826;2023-01-26T07:57:04;101773.09;;;16.14;41.28
26563;BME280;14217;50.986;5.826;2023-01-26T08:02:09;101792.47;;;16.15;40.96
26563;BME280;14217;50.986;5.826;2023-01-26T08:07:11;101786.31;;;16.16;41.25
26563;BME280;14217;50.986;5.826;2023-01-26T08:12:13;101788.00;;;16.18;41.41
26563;BME280;14217;50.986;5.826;2023-01-26T08:17:16;101790.66;;;16.17;41.25
26563;BME280;14217;50.986;5.826;2023-01-26T08:22:18;101795.19;;;16.12;41.12
26563;BME280;14217;50.986;5.826;2023-01-26T08:27:20;101791.50;;;16.19;41.30
26563;BME280;14217;50.986;5.826;2023-01-26T08:32:23;101791.50;;;16.20;40.90
26563;BME280;14217;50.986;5.826;2023-01-26T08:37:26;101793.31;;;16.17;41.30
26563;BME280;14217;50.986;5.826;2023-01-26T08:42:28;101807.34;;;16.20;41.01
26563;BME280;14217;50.986;5.826;2023-01-26T08:47:30;101801.19;;;16.20;41.03
26563;BME280;14217;50.986;5.826;2023-01-26T08:52:31;101802.19;;;16.14;41.17
26563;BME280;14217;50.986;5.826;2023-01-26T08:57:33;101807.59;;;16.08;41.32
26563;BME280;14217;50.986;5.826;2023-01-26T09:02:35;101815.38;;;16.16;40.52
26563;BME280;14217;50.986;5.826;2023-01-26T09:07:38;101811.59;;;16.29;39.75
26563;BME280;14217;50.986;5.826;2023-01-26T09:12:40;101820.56;;;16.22;39.70
26563;BME280;14217;50.986;5.826;2023-01-26T09:17:42;101828.59;;;16.17;40.13
26563;BME280;14217;50.986;5.826;2023-01-26T09:22:44;101830.31;;;16.18;39.86
26563;BME280;14217;50.986;5.826;2023-01-26T09:27:46;101827.69;;;16.17;40.08
26563;BME280;14217;50.986;5.826;2023-01-26T09:32:48;101828.53;;;16.19;39.91
26563;BME280;14217;50.986;5.826;2023-01-26T09:37:50;101833.19;;;16.06;39.05
26563;BME280;14217;50.986;5.826;2023-01-26T09:43:02;101831.38;;;16.08;40.05
26563;BME280;14217;50.986;5.826;2023-01-26T09:48:18;101833.03;;;15.62;40.13
26563;BME280;14217;50.986;5.826;2023-01-26T09:53:39;101821.41;;;15.76;40.19
26563;BME280;14217;50.986;5.826;2023-01-26T09:58:44;101828.16;;;15.92;39.65
26563;BME280;14217;50.986;5.826;2023-01-26T10:04:04;101828.00;;;16.00;39.58
26563;BME280;14217;50.986;5.826;2023-01-26T10:09:16;101821.75;;;16.04;39.26
26563;BME280;14217;50.986;5.826;2023-01-26T10:14:45;101823.63;;;15.99;39.24
26563;BME280;14217;50.986;5.826;2023-01-26T10:19:59;101821.72;;;16.07;39.23
26563;BME280;14217;50.986;5.826;2023-01-26T10:25:15;101828.75;;;16.08;39.20
26563;BME280;14217;50.986;5.826;2023-01-26T10:30:18;101826.06;;;16.10;39.10
26563;BME280;14217;50.986;5.826;2023-01-26T10:35:23;101813.78;;;16.09;39.29
26563;BME280;14217;50.986;5.826;2023-01-26T10:40:26;101817.25;;;16.11;39.11
26563;BME280;14217;50.986;5.826;2023-01-26T10:45:30;101810.22;;;16.08;38.83
26563;BME280;14217;50.986;5.826;2023-01-26T10:50:32;101815.50;;;16.10;38.98
26563;BME280;14217;50.986;5.826;2023-01-26T10:55:34;101810.97;;;15.65;38.05
26563;BME280;14217;50.986;5.826;2023-01-26T11:00:39;101806.84;;;15.49;38.01
26563;BME280;14217;50.986;5.826;2023-01-26T11:05:41;101823.63;;;15.44;38.40
26563;BME280;14217;50.986;5.826;2023-01-26T11:10:51;101819.34;;;15.37;38.22
26563;BME280;14217;50.986;5.826;2023-01-26T11:21:36;101819.38;;;15.34;38.04
26563;BME280;14217;50.986;5.826;2023-01-26T11:27:09;101811.53;;;15.30;38.04
26563;BME280;14217;50.986;5.826;2023-01-26T11:43:16;101793.13;;;15.25;38.11
26563;BME280;14217;50.986;5.826;2023-01-26T11:48:47;101793.63;;;15.49;38.75
26563;BME280;14217;50.986;5.826;2023-01-26T11:54:07;101786.00;;;15.83;39.01
26563;BME280;14217;50.986;5.826;2023-01-26T11:59:35;101782.47;;;15.85;39.32
26563;BME280;14217;50.986;5.826;2023-01-26T12:04:42;101777.06;;;15.92;40.26
26563;BME280;14217;50.986;5.826;2023-01-26T12:09:47;101774.44;;;15.92;41.16
26563;BME280;14217;50.986;5.826;2023-01-26T12:14:59;101767.94;;;16.08;41.38
26563;BME280;14217;50.986;5.826;2023-01-26T12:20:35;101757.31;;;16.11;41.17
26563;BME280;14217;50.986;5.826;2023-01-26T12:25:47;101760.63;;;16.21;41.65
26563;BME280;14217;50.986;5.826;2023-01-26T12:31:16;101757.00;;;16.25;41.58
26563;BME280;14217;50.986;5.826;2023-01-26T12:36:27;101743.38;;;16.01;41.39
26563;BME280;14217;50.986;5.826;2023-01-26T12:41:46;101741.69;;;15.97;41.34
26563;BME280;14217;50.986;5.826;2023-01-26T12:47:04;101739.03;;;15.99;40.92
26563;BME280;14217;50.986;5.826;2023-01-26T12:52:17;101732.81;;;16.01;40.43
26563;BME280;14217;50.986;5.826;2023-01-26T12:57:25;101728.88;;;16.21;40.28
26563;BME280;14217;50.986;5.826;2023-01-26T13:02:32;101731.25;;;16.35;39.77
26563;BME280;14217;50.986;5.826;2023-01-26T13:07:37;101727.78;;;16.33;39.56
26563;BME280;14217;50.986;5.826;2023-01-26T13:17:52;101727.66;;;16.39;39.40
26563;BME280;14217;50.986;5.826;2023-01-26T13:22:55;101726.03;;;16.32;39.20
26563;BME280;14217;50.986;5.826;2023-01-26T13:27:59;101728.88;;;16.21;39.67
26563;BME280;14217;50.986;5.826;2023-01-26T13:33:12;101722.88;;;16.13;39.71
26563;BME280;14217;50.986;5.826;2023-01-26T13:38:29;101721.06;;;16.16;39.45
26563;BME280;14217;50.986;5.826;2023-01-26T13:43:48;101726.38;;;16.15;39.50
26563;BME280;14217;50.986;5.826;2023-01-26T13:48:52;101715.84;;;16.13;39.58
26563;BME280;14217;50.986;5.826;2023-01-26T13:54:15;101730.06;;;16.08;39.77
26563;BME280;14217;50.986;5.826;2023-01-26T13:59:18;101729.00;;;16.16;39.35
26563;BME280;14217;50.986;5.826;2023-01-26T14:04:30;101722.81;;;16.17;39.31
26563;BME280;14217;50.986;5.826;2023-01-26T14:09:43;101723.72;;;16.15;39.38
26563;BME280;14217;50.986;5.826;2023-01-26T14:14:47;101714.91;;;16.16;39.33
26563;BME280;14217;50.986;5.826;2023-01-26T14:19:50;101721.19;;;16.10;39.33
26563;BME280;14217;50.986;5.826;2023-01-26T14:24:53;101727.22;;;16.17;39.04
26563;BME280;14217;50.986;5.826;2023-01-26T14:29:55;101725.47;;;16.16;39.07
26563;BME280;14217;50.986;5.826;2023-01-26T14:35:00;101726.31;;;16.18;39.06
26563;BME280;14217;50.986;5.826;2023-01-26T14:40:23;101729.94;;;16.12;39.36
26563;BME280;14217;50.986;5.826;2023-01-26T14:45:29;101720.25;;;16.13;39.23
26563;BME280;14217;50.986;5.826;2023-01-26T14:50:32;101720.34;;;16.08;39.16
26563;BME280;14217;50.986;5.826;2023-01-26T14:55:35;101716.91;;;16.04;39.21
26563;BME280;14217;50.986;5.826;2023-01-26T15:00:37;101734.56;;;16.02;39.36
26563;BME280;14217;50.986;5.826;2023-01-26T15:05:40;101734.47;;;16.09;39.13
26563;BME280;14217;50.986;5.826;2023-01-26T15:11:00;101745.91;;;16.08;39.40
26563;BME280;14217;50.986;5.826;2023-01-26T15:16:23;101748.50;;;16.11;39.29
26563;BME280;14217;50.986;5.826;2023-01-26T15:21:35;101743.81;;;15.80;41.72
26563;BME280;14217;50.986;5.826;2023-01-26T15:26:41;101752.97;;;15.57;44.05
26563;BME280;14217;50.986;5.826;2023-01-26T15:31:49;101757.41;;;15.55;45.29
26563;BME280;14217;50.986;5.826;2023-01-26T15:36:51;101755.34;;;15.76;44.34
26563;BME280;14217;50.986;5.826;2023-01-26T15:42:11;101756.34;;;15.65;49.42
26563;BME280;14217;50.986;5.826;2023-01-26T15:47:17;101757.22;;;15.66;52.64
26563;BME280;14217;50.986;5.826;2023-01-26T15:52:21;101754.56;;;15.68;55.90
26563;BME280;14217;50.986;5.826;2023-01-26T15:57:26;101754.66;;;15.61;57.12
26563;BME280;14217;50.986;5.826;2023-01-26T16:02:28;101742.19;;;15.73;56.61
26563;BME280;14217;50.986;5.826;2023-01-26T16:07:31;101737.13;;;16.07;48.83
26563;BME280;14217;50.986;5.826;2023-01-26T16:12:33;101741.31;;;16.17;44.26
26563;BME280;14217;50.986;5.826;2023-01-26T16:17:35;101740.72;;;16.03;43.85
26563;BME280;14217;50.986;5.826;2023-01-26T16:22:37;101734.63;;;15.99;46.18
26563;BME280;14217;50.986;5.826;2023-01-26T16:27:39;101733.66;;;16.03;44.38
26563;BME280;14217;50.986;5.826;2023-01-26T16:32:41;101741.28;;;16.19;45.43
26563;BME280;14217;50.986;5.826;2023-01-26T16:37:45;101738.91;;;16.07;43.72
26563;BME280;14217;50.986;5.826;2023-01-26T16:42:49;101734.91;;;15.84;44.04
26563;BME280;14217;50.986;5.826;2023-01-26T16:47:53;101744.22;;;15.55;45.33
26563;BME280;14217;50.986;5.826;2023-01-26T16:52:56;101746.25;;;15.89;44.43
26563;BME280;14217;50.986;5.826;2023-01-26T16:57:58;101749.47;;;16.07;44.48
26563;BME280;14217;50.986;5.826;2023-01-26T17:03:00;101751.94;;;16.14;43.88
26563;BME280;14217;50.986;5.826;2023-01-26T17:08:03;101756.94;;;16.30;43.10
26563;BME280;14217;50.986;5.826;2023-01-26T17:13:05;101750.66;;;16.34;42.91
26563;BME280;14217;50.986;5.826;2023-01-26T17:18:10;101755.16;;;16.30;42.86
26563;BME280;14217;50.986;5.826;2023-01-26T17:23:12;101748.19;;;16.28;42.63
26563;BME280;14217;50.986;5.826;2023-01-26T17:28:14;101734.75;;;16.37;42.39
26563;BME280;14217;50.986;5.826;2023-01-26T17:33:17;101746.16;;;16.39;42.06
26563;BME280;14217;50.986;5.826;2023-01-26T17:38:19;101746.97;;;16.42;42.03
26563;BME280;14217;50.986;5.826;2023-01-26T17:43:20;101751.66;;;16.30;41.86
26563;BME280;14217;50.986;5.826;2023-01-26T17:48:22;101753.28;;;16.35;41.95
26563;BME280;14217;50.986;5.826;2023-01-26T17:53:24;101749.94;;;16.27;41.51
26563;BME280;14217;50.986;5.826;2023-01-26T17:58:28;101745.38;;;16.34;41.39
26563;BME280;14217;50.986;5.826;2023-01-26T18:03:30;101754.31;;;16.30;41.38
26563;BME280;14217;50.986;5.826;2023-01-26T18:08:33;101756.84;;;16.34;41.47
26563;BME280;14217;50.986;5.826;2023-01-26T18:13:35;101745.47;;;16.29;41.29
26563;BME280;14217;50.986;5.826;2023-01-26T18:18:37;101750.66;;;16.34;41.32
26563;BME280;14217;50.986;5.826;2023-01-26T18:23:42;101746.22;;;16.36;41.23
26563;BME280;14217;50.986;5.826;2023-01-26T18:28:45;101743.53;;;16.39;40.98
26563;BME280;14217;50.986;5.826;2023-01-26T18:33:48;101739.19;;;16.35;40.97
26563;BME280;14217;50.986;5.826;2023-01-26T18:38:52;101739.56;;;15.68;43.93
26563;BME280;14217;50.986;5.826;2023-01-26T18:43:55;101747.47;;;15.73;44.57
26563;BME280;14217;50.986;5.826;2023-01-26T18:48:59;101737.56;;;15.84;44.23
26563;BME280;14217;50.986;5.826;2023-01-26T18:54:02;101736.50;;;15.93;43.74
26563;BME280;14217;50.986;5.826;2023-01-26T18:59:05;101736.50;;;15.94;43.27
26563;BME280;14217;50.986;5.826;2023-01-26T19:04:10;101729.50;;;15.92;43.13
26563;BME280;14217;50.986;5.826;2023-01-26T19:09:13;101729.34;;;15.98;42.84
26563;BME280;14217;50.986;5.826;2023-01-26T19:14:15;101730.97;;;16.07;42.65
26563;BME280;14217;50.986;5.826;2023-01-26T19:19:17;101725.84;;;15.97;42.43
26563;BME280;14217;50.986;5.826;2023-01-26T19:24:19;101723.69;;;16.18;42.14
26563;BME280;14217;50.986;5.826;2023-01-26T19:29:21;101734.72;;;16.38;41.46
26563;BME280;14217;50.986;5.826;2023-01-26T19:34:23;101728.34;;;16.49;48.37
26563;BME280;14217;50.986;5.826;2023-01-26T19:39:25;101732.69;;;16.08;42.57
26563;BME280;14217;50.986;5.826;2023-01-26T19:44:28;101736.31;;;16.03;42.67
26563;BME280;14217;50.986;5.826;2023-01-26T19:49:30;101732.56;;;16.15;42.15
26563;BME280;14217;50.986;5.826;2023-01-26T19:54:33;101735.72;;;16.31;41.72
26563;BME280;14217;50.986;5.826;2023-01-26T19:59:35;101740.84;;;16.40;41.37
26563;BME280;14217;50.986;5.826;2023-01-26T20:04:37;101736.69;;;16.27;41.63
26563;BME280;14217;50.986;5.826;2023-01-26T20:09:39;101724.88;;;16.45;41.06
26563;BME280;14217;50.986;5.826;2023-01-26T20:14:41;101728.34;;;16.49;41.07
26563;BME280;14217;50.986;5.826;2023-01-26T20:19:43;101726.69;;;16.43;40.97
26563;BME280;14217;50.986;5.826;2023-01-26T20:24:46;101725.81;;;16.42;40.93
26563;BME280;14217;50.986;5.826;2023-01-26T20:29:48;101723.19;;;16.41;40.88
26563;BME280;14217;50.986;5.826;2023-01-26T20:34:50;101719.94;;;16.28;41.22
26563;BME280;14217;50.986;5.826;2023-01-26T20:39:53;101726.91;;;16.32;41.29
26563;BME280;14217;50.986;5.826;2023-01-26T20:44:55;101716.22;;;16.38;41.54
26563;BME280;14217;50.986;5.826;2023-01-26T20:49:59;101722.38;;;16.39;41.48
26563;BME280;14217;50.986;5.826;2023-01-26T20:55:03;101717.66;;;16.52;41.25
26563;BME280;14217;50.986;5.826;2023-01-26T21:00:08;101721.31;;;16.46;41.32
26563;BME280;14217;50.986;5.826;2023-01-26T21:05:11;101714.56;;;16.31;42.83
26563;BME280;14217;50.986;5.826;2023-01-26T21:10:12;101713.16;;;16.15;43.54
26563;BME280;14217;50.986;5.826;2023-01-26T21:15:15;101716.91;;;16.46;43.43
26563;BME280;14217;50.986;5.826;2023-01-26T21:20:17;101705.69;;;16.35;42.57
26563;BME280;14217;50.986;5.826;2023-01-26T21:25:20;101705.63;;;16.38;42.87
26563;BME280;14217;50.986;5.826;2023-01-26T21:30:22;101715.59;;;16.25;42.90
26563;BME280;14217;50.986;5.826;2023-01-26T21:35:23;101703.28;;;16.23;42.80
26563;BME280;14217;50.986;5.826;2023-01-26T21:40:26;101696.38;;;16.17;42.48
26563;BME280;14217;50.986;5.826;2023-01-26T21:45:27;101696.06;;;16.31;42.75
26563;BME280;14217;50.986;5.826;2023-01-26T21:50:48;101690.88;;;16.26;43.67
26563;BME280;14217;50.986;5.826;2023-01-26T21:56:09;101695.00;;;16.40;43.89
26563;BME280;14217;50.986;5.826;2023-01-26T22:01:11;101695.13;;;16.34;43.93
26563;BME280;14217;50.986;5.826;2023-01-26T22:06:13;101693.63;;;15.78;41.26
26563;BME280;14217;50.986;5.826;2023-01-26T22:11:15;101691.59;;;15.91;41.88
26563;BME280;14217;50.986;5.826;2023-01-26T22:16:17;101696.72;;;16.00;41.81
26563;BME280;14217;50.986;5.826;2023-01-26T22:21:20;101697.47;;;16.07;41.59
26563;BME280;14217;50.986;5.826;2023-01-26T22:26:22;101694.00;;;16.03;41.48
26563;BME280;14217;50.986;5.826;2023-01-26T22:31:27;101684.28;;;16.05;41.57
26563;BME280;14217;50.986;5.826;2023-01-26T22:36:29;101680.59;;;16.13;41.28
26563;BME280;14217;50.986;5.826;2023-01-26T22:41:31;101678.59;;;16.24;41.25
26563;BME280;14217;50.986;5.826;2023-01-26T22:46:35;101686.72;;;16.15;41.77
26563;BME280;14217;50.986;5.826;2023-01-26T22:51:37;101692.16;;;16.09;41.81
26563;BME280;14217;50.986;5.826;2023-01-26T22:56:39;101690.41;;;16.08;42.09
26563;BME280;14217;50.986;5.826;2023-01-26T23:01:41;101687.84;;;16.04;41.69
26563;BME280;14217;50.986;5.826;2023-01-26T23:06:43;101677.16;;;16.09;41.50
26563;BME280;14217;50.986;5.826;2023-01-26T23:11:45;101682.47;;;16.08;41.65
26563;BME280;14217;50.986;5.826;2023-01-26T23:16:47;101677.19;;;16.08;41.62
26563;BME280;14217;50.986;5.826;2023-01-26T23:21:49;101682.47;;;16.08;41.44
26563;BME280;14217;50.986;5.826;2023-01-26T23:26:52;101677.13;;;16.11;41.46
26563;BME280;14217;50.986;5.826;2023-01-26T23:31:54;101680.69;;;16.08;41.50
26563;BME280;14217;50.986;5.826;2023-01-26T23:36:56;101680.69;;;16.08;41.33
26563;BME280;14217;50.986;5.826;2023-01-26T23:41:58;101671.88;;;16.08;41.31
26563;BME280;14217;50.986;5.826;2023-01-26T23:46:59;101684.28;;;16.04;41.60
26563;BME280;14217;50.986;5.826;2023-01-26T23:52:02;101675.38;;;16.10;41.10
26563;BME280;14217;50.986;5.826;2023-01-26T23:57:04;101671.88;;;16.09;41.35
